createdAt,value
2023-01-22T00:00:21.045Z,-37.78
2023-01-22T00:05:24.958Z,-37.61
2023-01-22T00:10:30.644Z,-37.45
2023-01-22T00:15:35.385Z,-37.47
2023-01-22T00:20:41.648Z,-37.56
2023-01-22T00:25:46.093Z,-37.60
2023-01-22T00:31:03.881Z,-37.54
2023-01-22T00:36:16.228Z,-37.69
2023-01-22T00:41:23.821Z,-37.79
2023-01-22T00:46:27.702Z,-38.33
2023-01-22T00:51:33.999Z,-38.07
2023-01-22T00:56:37.911Z,-37.79
2023-01-22T01:01:41.795Z,-37.96
2023-01-22T01:06:46.972Z,-38.09
2023-01-22T01:11:51.471Z,-38.08
2023-01-22T01:16:58.361Z,-38.12
2023-01-22T01:22:02.782Z,-38.08
2023-01-22T01:27:08.001Z,-37.91
2023-01-22T01:32:14.237Z,-37.88
2023-01-22T01:37:48.634Z,-37.90
2023-01-22T01:42:53.400Z,-37.82
2023-01-22T01:48:19.698Z,-37.75
2023-01-22T01:53:23.744Z,-37.64
2023-01-22T01:58:33.987Z,-37.73
2023-01-22T02:03:40.100Z,-37.69
2023-01-22T02:08:50.852Z,-37.53
2023-01-22T02:14:12.665Z,-37.59
2023-01-22T02:19:20.919Z,-37.68
2023-01-22T02:24:24.892Z,-37.83
2023-01-22T02:29:29.752Z,-37.76
2023-01-22T02:34:33.586Z,-38.37
2023-01-22T02:39:39.743Z,-37.56
2023-01-22T02:44:45.912Z,-37.45
2023-01-22T02:49:51.056Z,-37.47
2023-01-22T02:54:54.976Z,-38.02
2023-01-22T03:00:00.930Z,-37.58
2023-01-22T03:05:05.409Z,-37.31
2023-01-22T03:10:14.120Z,-37.29
2023-01-22T03:15:37.937Z,-36.92
2023-01-22T03:21:01.376Z,-36.76
2023-01-22T03:26:06.204Z,-36.51
2023-01-22T03:31:11.787Z,-36.14
2023-01-22T03:36:18.936Z,-35.87
2023-01-22T03:41:30.760Z,-35.68
2023-01-22T03:46:42.929Z,-35.25
2023-01-22T03:51:47.210Z,-34.97
2023-01-22T03:56:55.419Z,-34.66
2023-01-22T04:02:05.602Z,-34.44
2023-01-22T04:07:18.436Z,-34.29
2023-01-22T04:12:23.057Z,-34.22
2023-01-22T04:17:28.388Z,-34.03
2023-01-22T04:22:52.449Z,-33.70
2023-01-22T04:27:57.424Z,-33.34
2023-01-22T04:33:03.348Z,-32.98
2023-01-22T04:38:18.929Z,-32.71
2023-01-22T04:43:24.725Z,-32.38
2023-01-22T04:48:29.591Z,-32.25
2023-01-22T04:53:34.337Z,-31.90
2023-01-22T04:58:42.872Z,-32.26
2023-01-22T05:03:47.551Z,-31.52
2023-01-22T05:08:51.551Z,-31.24
2023-01-22T05:13:55.538Z,-30.96
2023-01-22T05:19:01.454Z,-30.56
2023-01-22T05:24:10.243Z,-30.23
2023-01-22T05:29:16.957Z,-29.94
2023-01-22T05:34:24.882Z,-29.57
2023-01-22T05:39:29.739Z,-29.66
2023-01-22T05:44:37.171Z,-29.05
2023-01-22T05:49:43.116Z,-28.91
2023-01-22T05:54:50.259Z,-28.79
2023-01-22T05:59:54.919Z,-28.63
2023-01-22T06:05:01.005Z,-28.48
2023-01-22T06:10:06.308Z,-28.38
2023-01-22T06:15:20.972Z,-28.31
2023-01-22T06:20:33.619Z,-28.20
2023-01-22T06:25:39.391Z,-28.55
2023-01-22T06:30:58.280Z,-28.00
2023-01-22T06:36:04.368Z,-28.00
2023-01-22T06:41:10.714Z,-27.96
2023-01-22T06:46:16.291Z,-28.01
2023-01-22T06:51:40.299Z,-27.84
2023-01-22T06:56:49.531Z,-27.86
2023-01-22T07:01:54.817Z,-27.73
2023-01-22T07:06:59.851Z,-27.96
2023-01-22T07:12:03.938Z,-27.48
2023-01-22T07:17:13.709Z,-27.34
2023-01-22T07:22:17.490Z,-27.13
2023-01-22T07:27:24.548Z,-27.00
2023-01-22T07:32:31.879Z,-26.88
2023-01-22T07:43:53.476Z,-26.46
2023-01-22T07:48:57.240Z,-26.82
2023-01-22T07:54:03.708Z,-26.13
2023-01-22T07:59:07.594Z,-26.07
2023-01-22T08:04:14.138Z,-25.87
2023-01-22T08:09:26.019Z,-25.77
2023-01-22T08:14:30.647Z,-25.64
2023-01-22T08:19:35.881Z,-25.51
2023-01-22T08:24:41.841Z,-25.36
2023-01-22T08:29:46.450Z,-25.25
2023-01-22T08:34:56.892Z,-25.12
2023-01-22T08:40:01.972Z,-24.99
2023-01-22T08:45:07.273Z,-24.91
2023-01-22T08:50:11.727Z,-24.89
2023-01-22T08:55:17.136Z,-24.90
2023-01-22T09:00:22.416Z,-24.93
2023-01-22T09:05:29.992Z,-24.97
2023-01-22T09:10:33.963Z,-24.97
2023-01-22T09:15:38.744Z,-24.88
2023-01-22T09:20:42.789Z,-25.00
2023-01-22T09:25:48.772Z,-24.81
2023-01-22T09:30:52.545Z,-24.84
2023-01-22T09:36:08.603Z,-24.67
2023-01-22T09:41:16.403Z,-24.66
2023-01-22T09:46:44.076Z,-24.65
2023-01-22T09:52:05.147Z,-24.55
2023-01-22T09:57:30.673Z,-24.46
2023-01-22T10:02:46.176Z,-24.41
2023-01-22T10:08:03.000Z,-24.40
2023-01-22T10:13:29.167Z,-24.41
2023-01-22T10:18:41.927Z,-24.41
2023-01-22T10:23:45.954Z,-24.42
2023-01-22T10:28:55.613Z,-24.48
2023-01-22T10:34:02.469Z,-24.51
2023-01-22T10:39:15.993Z,-24.53
2023-01-22T10:44:26.829Z,-24.52
2023-01-22T10:49:32.056Z,-24.92
2023-01-22T10:54:45.932Z,-24.48
2023-01-22T10:59:57.133Z,-24.40
2023-01-22T11:05:21.119Z,-24.28
2023-01-22T11:10:57.654Z,-24.11
2023-01-22T11:16:19.005Z,-23.93
2023-01-22T11:21:33.057Z,-23.75
2023-01-22T11:26:55.827Z,-23.54
2023-01-22T11:32:24.020Z,-23.35
2023-01-22T11:37:36.147Z,-23.13
2023-01-22T11:43:00.619Z,-22.84
2023-01-22T11:48:32.301Z,-22.62
2023-01-22T11:54:01.991Z,-22.54
2023-01-22T11:59:51.208Z,-22.30
2023-01-22T12:05:38.239Z,-22.20
2023-01-22T12:11:10.981Z,-22.12
2023-01-22T12:16:32.789Z,-22.02
2023-01-22T12:22:01.865Z,-21.92
2023-01-22T12:27:16.996Z,-21.83
2023-01-22T12:32:25.165Z,-21.75
2023-01-22T12:37:42.042Z,-21.64
2023-01-22T12:43:02.291Z,-21.56
2023-01-22T12:48:25.139Z,-21.49
2023-01-22T12:53:30.517Z,-21.43
2023-01-22T12:58:43.080Z,-21.36
2023-01-22T13:04:01.968Z,-21.31
2023-01-22T13:09:25.327Z,-21.25
2023-01-22T13:14:34.007Z,-21.19
2023-01-22T13:19:45.802Z,-21.10
2023-01-22T13:24:55.507Z,-21.00
2023-01-22T13:30:22.047Z,-20.91
2023-01-22T13:35:25.866Z,-20.89
2023-01-22T13:40:42.730Z,-20.87
2023-01-22T13:45:53.166Z,-20.71
2023-01-22T13:51:12.534Z,-20.68
2023-01-22T13:56:21.936Z,-20.67
2023-01-22T14:01:32.083Z,-20.63
2023-01-22T14:06:50.276Z,-20.62
2023-01-22T14:11:54.170Z,-20.66
2023-01-22T14:17:00.015Z,-20.52
2023-01-22T14:22:03.829Z,-20.52
2023-01-22T14:27:09.984Z,-20.49
2023-01-22T14:32:13.736Z,-20.46
2023-01-22T14:37:19.169Z,-20.39
2023-01-22T14:42:27.272Z,-20.45
2023-01-22T14:47:31.791Z,-20.29
2023-01-22T14:52:43.071Z,-20.23
2023-01-22T14:57:51.154Z,-20.22
2023-01-22T15:03:00.959Z,-20.24
2023-01-22T15:08:05.539Z,-20.25
2023-01-22T15:13:11.163Z,-20.22
2023-01-22T15:18:15.732Z,-20.55
2023-01-22T15:23:19.714Z,-20.10
2023-01-22T15:28:24.239Z,-20.07
2023-01-22T15:33:29.913Z,-20.02
2023-01-22T15:38:34.854Z,-19.98
2023-01-22T15:43:40.432Z,-19.96
2023-01-22T15:48:44.573Z,-19.91
2023-01-22T15:53:56.584Z,-19.96
2023-01-22T15:59:01.724Z,-19.85
2023-01-22T16:04:05.738Z,-19.89
2023-01-22T16:09:11.727Z,-19.90
2023-01-22T16:14:15.583Z,-19.88
2023-01-22T16:19:20.368Z,-19.97
2023-01-22T16:24:24.179Z,-19.85
2023-01-22T16:29:30.556Z,-19.84
2023-01-22T16:34:34.692Z,-19.82
2023-01-22T16:39:38.909Z,-19.79
2023-01-22T16:44:42.786Z,-19.74
2023-01-22T16:49:46.928Z,-19.78
2023-01-22T16:55:51.776Z,-19.64
2023-01-22T17:00:55.771Z,-19.60
2023-01-22T17:06:00.605Z,-19.53
2023-01-22T17:11:06.610Z,-19.48
2023-01-22T17:16:11.981Z,-19.42
2023-01-22T17:21:19.999Z,-19.36
2023-01-22T17:26:23.979Z,-19.29
2023-01-22T17:31:28.095Z,-19.21
2023-01-22T17:36:33.656Z,-19.13
2023-01-22T17:41:37.377Z,-19.52
2023-01-22T17:46:43.726Z,-18.97
2023-01-22T17:51:48.498Z,-18.92
2023-01-22T17:56:54.938Z,-18.87
2023-01-22T18:02:01.629Z,-18.76
2023-01-22T18:07:06.041Z,-18.67
2023-01-22T18:12:11.811Z,-18.60
2023-01-22T18:17:15.698Z,-18.52
2023-01-22T18:22:21.967Z,-18.48
2023-01-22T18:27:26.941Z,-18.33
2023-01-22T18:32:32.927Z,-18.23
2023-01-22T18:37:38.307Z,-18.11
2023-01-22T18:42:44.522Z,-18.03
2023-01-22T18:47:56.658Z,-17.94
2023-01-22T18:53:04.029Z,-17.86
2023-01-22T18:58:20.603Z,-18.02
2023-01-22T19:03:27.718Z,-17.74
2023-01-22T19:08:31.621Z,-17.72
2023-01-22T19:13:36.191Z,-17.62
2023-01-22T19:18:44.325Z,-17.59
2023-01-22T19:23:55.170Z,-17.54
2023-01-22T19:29:05.382Z,-17.45
2023-01-22T19:34:13.039Z,-17.40
2023-01-22T19:39:16.463Z,-17.35
2023-01-22T19:44:21.196Z,-17.30
2023-01-22T19:49:25.781Z,-17.28
2023-01-22T19:54:29.723Z,-17.23
2023-01-22T19:59:35.939Z,-17.15
2023-01-22T20:04:41.789Z,-17.16
2023-01-22T20:09:45.756Z,-17.05
2023-01-22T20:14:54.435Z,-17.13
2023-01-22T20:19:58.267Z,-17.34
2023-01-22T20:25:03.758Z,-16.95
2023-01-22T20:30:09.006Z,-16.88
2023-01-22T20:35:19.174Z,-16.85
2023-01-22T20:40:26.516Z,-16.84
2023-01-22T20:45:33.826Z,-16.82
2023-01-22T20:50:43.041Z,-16.89
2023-01-22T20:55:49.501Z,-16.79
2023-01-22T21:00:56.836Z,-16.79
2023-01-22T21:06:13.562Z,-16.77
2023-01-22T21:11:21.304Z,-16.72
2023-01-22T21:16:27.947Z,-16.71
2023-01-22T21:21:38.058Z,-16.69
2023-01-22T21:26:44.010Z,-16.79
2023-01-22T21:31:53.281Z,-16.64
2023-01-22T21:37:02.007Z,-16.74
2023-01-22T21:42:25.787Z,-16.59
2023-01-22T21:47:31.572Z,-16.69
2023-01-22T21:52:35.460Z,-16.57
2023-01-22T21:57:40.574Z,-16.55
2023-01-22T22:02:46.547Z,-16.54
2023-01-22T22:07:50.559Z,-16.55
2023-01-22T22:12:54.461Z,-16.48
2023-01-22T22:18:00.168Z,-16.46
2023-01-22T22:23:05.960Z,-16.43
2023-01-22T22:28:11.796Z,-16.46
2023-01-22T22:33:15.820Z,-16.46
2023-01-22T22:38:21.893Z,-16.44
2023-01-22T22:43:25.795Z,-16.37
2023-01-22T22:48:29.779Z,-16.36
2023-01-22T22:53:34.698Z,-16.35
2023-01-22T22:58:40.517Z,-16.34
2023-01-22T23:03:46.179Z,-16.33
2023-01-22T23:08:55.078Z,-16.33
2023-01-22T23:14:03.469Z,-16.33
2023-01-22T23:19:20.872Z,-16.34
2023-01-22T23:24:28.565Z,-16.35
2023-01-22T23:29:33.491Z,-16.34
2023-01-22T23:34:42.174Z,-16.38
2023-01-22T23:39:46.705Z,-16.36
2023-01-22T23:44:50.550Z,-16.36
2023-01-22T23:49:54.388Z,-16.36
2023-01-22T23:55:00.054Z,-16.39
